createdAt,value
2022-10-17T00:00:56.520Z,1006.74
2022-10-17T00:01:56.495Z,1006.77
2022-10-17T00:02:56.724Z,1006.77
2022-10-17T00:04:03.869Z,1006.77
2022-10-17T00:04:56.508Z,1006.81
2022-10-17T00:05:57.900Z,1006.82
2022-10-17T00:06:56.457Z,1006.82
2022-10-17T00:08:03.970Z,1006.87
2022-10-17T00:08:56.660Z,1006.87
2022-10-17T00:09:56.436Z,1006.89
2022-10-17T00:10:56.656Z,1006.86
2022-10-17T00:11:57.414Z,1006.83
2022-10-17T00:12:59.658Z,1006.87
2022-10-17T00:14:03.637Z,1006.83
2022-10-17T00:14:57.647Z,1006.86
2022-10-17T00:15:56.366Z,1006.90
2022-10-17T00:16:56.377Z,1006.91
2022-10-17T00:17:59.369Z,1006.89
2022-10-17T00:18:57.389Z,1006.90
2022-10-17T00:19:59.370Z,1006.87
2022-10-17T00:21:18.316Z,1006.88
2022-10-17T00:21:56.339Z,1006.89
2022-10-17T00:22:56.500Z,1006.92
2022-10-17T00:23:56.531Z,1006.94
2022-10-17T00:24:57.509Z,1006.95
2022-10-17T00:25:56.289Z,1006.95
2022-10-17T00:26:56.516Z,1006.91
2022-10-17T00:27:56.465Z,1006.92
2022-10-17T00:28:57.341Z,1006.94
2022-10-17T00:29:56.205Z,1006.93
2022-10-17T00:30:56.440Z,1006.94
2022-10-17T00:31:56.469Z,1006.93
2022-10-17T00:32:59.467Z,1006.94
2022-10-17T00:33:59.210Z,1006.92
2022-10-17T00:34:56.379Z,1006.91
2022-10-17T00:35:56.392Z,1006.94
2022-10-17T00:36:56.149Z,1006.97
2022-10-17T00:37:56.141Z,1006.93
2022-10-17T00:38:56.121Z,1006.96
2022-10-17T00:39:56.331Z,1007.01
2022-10-17T00:41:56.134Z,1006.92
2022-10-17T00:42:59.098Z,1006.99
2022-10-17T00:43:57.093Z,1006.95
2022-10-17T00:44:59.345Z,1006.95
2022-10-17T00:45:56.073Z,1006.97
2022-10-17T00:46:57.064Z,1006.97
2022-10-17T00:47:56.295Z,1006.99
2022-10-17T00:48:56.041Z,1006.95
2022-10-17T00:49:57.050Z,1006.93
2022-10-17T00:50:56.009Z,1006.95
2022-10-17T00:51:56.003Z,1006.97
2022-10-17T00:52:56.992Z,1006.93
2022-10-17T00:53:55.993Z,1006.95
2022-10-17T00:54:57.173Z,1006.96
2022-10-17T00:55:58.990Z,1006.91
2022-10-17T00:56:56.208Z,1006.93
2022-10-17T00:57:56.197Z,1006.95
2022-10-17T00:58:56.165Z,1006.94
2022-10-17T00:59:55.911Z,1006.96
2022-10-17T01:00:55.904Z,1006.94
2022-10-17T01:01:56.166Z,1006.95
2022-10-17T01:02:58.898Z,1006.97
2022-10-17T01:03:55.881Z,1006.97
2022-10-17T01:04:55.890Z,1007.05
2022-10-17T01:05:55.846Z,1007.04
2022-10-17T01:06:58.867Z,1006.94
2022-10-17T01:07:56.062Z,1006.93
2022-10-17T01:08:56.825Z,1006.96
2022-10-17T01:09:56.072Z,1006.97
2022-10-17T01:11:17.029Z,1006.99
2022-10-17T01:12:02.882Z,1006.96
2022-10-17T01:12:56.794Z,1006.99
2022-10-17T01:13:55.932Z,1006.95
2022-10-17T01:15:11.298Z,1007.01
2022-10-17T01:15:58.742Z,1006.99
2022-10-17T01:16:55.758Z,1007.02
2022-10-17T01:17:56.751Z,1006.99
2022-10-17T01:18:55.760Z,1007.06
2022-10-17T01:19:56.729Z,1007.09
2022-10-17T01:20:55.928Z,1007.09
2022-10-17T01:22:16.968Z,1007.07
2022-10-17T01:22:55.888Z,1007.11
2022-10-17T01:23:55.922Z,1007.11
2022-10-17T01:24:55.687Z,1007.11
2022-10-17T01:25:55.649Z,1007.16
2022-10-17T01:27:11.145Z,1007.09
2022-10-17T01:27:55.859Z,1007.13
2022-10-17T01:28:55.598Z,1007.13
2022-10-17T01:29:55.856Z,1007.15
2022-10-17T01:30:55.612Z,1007.12
2022-10-17T01:31:55.582Z,1007.10
2022-10-17T01:33:11.092Z,1007.12
2022-10-17T01:33:55.568Z,1007.14
2022-10-17T01:34:56.558Z,1007.10
2022-10-17T01:35:57.368Z,1007.07
2022-10-17T01:36:55.524Z,1007.09
2022-10-17T01:37:56.546Z,1007.11
2022-10-17T01:38:55.561Z,1007.13
2022-10-17T01:39:55.725Z,1007.08
2022-10-17T01:40:55.508Z,1007.11
2022-10-17T01:41:55.721Z,1007.11
2022-10-17T01:42:55.456Z,1007.13
2022-10-17T01:43:55.461Z,1007.07
2022-10-17T01:44:58.471Z,1007.13
2022-10-17T01:45:55.711Z,1007.08
2022-10-17T01:47:56.422Z,1007.08
2022-10-17T01:49:02.864Z,1007.12
2022-10-17T01:49:55.395Z,1007.06
2022-10-17T01:50:55.400Z,1007.03
2022-10-17T01:51:58.412Z,1007.02
2022-10-17T01:52:55.610Z,1007.08
2022-10-17T01:53:56.384Z,1007.02
2022-10-17T01:54:55.585Z,1007.09
2022-10-17T01:55:55.369Z,1007.04
2022-10-17T01:56:55.334Z,1007.04
2022-10-17T01:57:56.563Z,1006.98
2022-10-17T01:58:56.576Z,1007.01
2022-10-17T01:59:55.536Z,1007.01
2022-10-17T02:00:55.567Z,1007.00
2022-10-17T02:02:02.640Z,1007.00
2022-10-17T02:02:55.270Z,1007.00
2022-10-17T02:03:58.284Z,1006.97
2022-10-17T02:04:55.297Z,1006.99
2022-10-17T02:05:58.266Z,1006.96
2022-10-17T02:06:55.494Z,1006.97
2022-10-17T02:07:56.250Z,1007.00
2022-10-17T02:08:55.185Z,1006.96
2022-10-17T02:10:10.598Z,1006.98
2022-10-17T02:10:55.457Z,1007.01
2022-10-17T02:11:55.185Z,1006.99
2022-10-17T02:12:55.390Z,1006.98
2022-10-17T02:13:55.157Z,1007.01
2022-10-17T02:14:55.133Z,1006.98
2022-10-17T02:15:55.405Z,1006.97
2022-10-17T02:16:55.345Z,1007.00
2022-10-17T02:17:55.125Z,1007.00
2022-10-17T02:18:56.119Z,1007.00
2022-10-17T02:19:55.309Z,1007.03
2022-10-17T02:21:10.786Z,1007.04
2022-10-17T02:21:55.311Z,1007.00
2022-10-17T02:23:16.208Z,1007.00
2022-10-17T02:24:02.314Z,1007.01
2022-10-17T02:24:56.072Z,1007.02
2022-10-17T02:26:10.333Z,1007.02
2022-10-17T02:26:55.258Z,1007.00
2022-10-17T02:27:55.015Z,1007.03
2022-10-17T02:28:58.313Z,1007.03
2022-10-17T02:30:02.479Z,1007.10
2022-10-17T02:30:56.010Z,1007.10
2022-10-17T02:31:55.176Z,1007.09
2022-10-17T02:32:55.223Z,1007.08
2022-10-17T02:33:56.172Z,1007.07
2022-10-17T02:34:55.207Z,1007.06
2022-10-17T02:35:55.165Z,1007.05
2022-10-17T02:36:54.929Z,1007.11
2022-10-17T02:37:58.157Z,1007.13
2022-10-17T02:38:56.133Z,1007.08
2022-10-17T02:39:54.898Z,1007.09
2022-10-17T02:40:55.115Z,1007.08
2022-10-17T02:41:55.075Z,1007.06
2022-10-17T02:42:55.080Z,1007.07
2022-10-17T02:43:57.627Z,1007.07
2022-10-17T02:44:55.844Z,1007.10
2022-10-17T02:45:55.082Z,1007.06
2022-10-17T02:47:02.124Z,1007.07
2022-10-17T02:47:56.073Z,1007.07
2022-10-17T02:48:55.033Z,1007.11
2022-10-17T02:50:15.824Z,1007.09
2022-10-17T02:50:56.023Z,1007.09
2022-10-17T02:52:02.215Z,1007.10
2022-10-17T02:52:57.772Z,1007.13
2022-10-17T02:53:54.990Z,1007.07
2022-10-17T02:54:54.984Z,1007.09
2022-10-17T02:55:54.952Z,1007.08
2022-10-17T02:56:54.714Z,1007.10
2022-10-17T02:57:57.769Z,1007.10
2022-10-17T02:58:54.699Z,1007.12
2022-10-17T02:59:54.706Z,1007.18
2022-10-17T03:00:55.993Z,1007.18
2022-10-17T03:01:55.939Z,1007.15
2022-10-17T03:03:10.059Z,1007.21
2022-10-17T03:03:54.883Z,1007.20
2022-10-17T03:05:01.928Z,1007.22
2022-10-17T03:05:54.664Z,1007.24
2022-10-17T03:07:01.745Z,1007.23
2022-10-17T03:07:57.885Z,1007.23
2022-10-17T03:08:55.599Z,1007.21
2022-10-17T03:09:58.324Z,1007.22
2022-10-17T03:10:54.576Z,1007.21
2022-10-17T03:11:57.854Z,1007.21
2022-10-17T03:12:55.804Z,1007.24
2022-10-17T03:13:54.562Z,1007.28
2022-10-17T03:14:54.751Z,1007.33
2022-10-17T03:15:54.738Z,1007.32
2022-10-17T03:17:02.020Z,1007.32
2022-10-17T03:17:54.501Z,1007.36
2022-10-17T03:18:54.723Z,1007.34
2022-10-17T03:19:55.484Z,1007.37
2022-10-17T03:20:54.457Z,1007.38
2022-10-17T03:21:57.717Z,1007.35
2022-10-17T03:22:54.495Z,1007.33
2022-10-17T03:23:54.445Z,1007.37
2022-10-17T03:24:55.435Z,1007.44
2022-10-17T03:25:55.442Z,1007.41
2022-10-17T03:26:54.617Z,1007.34
2022-10-17T03:27:54.648Z,1007.31
2022-10-17T03:28:54.694Z,1007.31
2022-10-17T03:30:01.604Z,1007.35
2022-10-17T03:30:54.347Z,1007.37
2022-10-17T03:31:54.585Z,1007.38
2022-10-17T03:32:54.328Z,1007.28
2022-10-17T03:33:54.581Z,1007.25
2022-10-17T03:34:54.360Z,1007.27
2022-10-17T03:35:54.316Z,1007.35
2022-10-17T03:36:57.322Z,1007.42
2022-10-17T03:37:55.551Z,1007.41
2022-10-17T03:39:01.461Z,1007.36
2022-10-17T03:39:54.528Z,1007.32
2022-10-17T03:40:54.269Z,1007.28
2022-10-17T03:41:57.520Z,1007.37
2022-10-17T03:42:54.240Z,1007.32
2022-10-17T03:43:54.222Z,1007.34
2022-10-17T03:44:57.483Z,1007.40
2022-10-17T03:45:54.247Z,1007.40
2022-10-17T03:47:01.485Z,1007.35
2022-10-17T03:47:55.208Z,1007.35
2022-10-17T03:48:54.180Z,1007.38
2022-10-17T03:49:54.397Z,1007.44
2022-10-17T03:50:54.400Z,1007.47
2022-10-17T03:52:09.788Z,1007.46
2022-10-17T03:52:55.172Z,1007.46
2022-10-17T03:54:01.489Z,1007.45
2022-10-17T03:54:57.379Z,1007.45
2022-10-17T03:55:54.115Z,1007.45
2022-10-17T03:56:54.191Z,1007.47
2022-10-17T03:57:54.082Z,1007.44
2022-10-17T03:58:54.089Z,1007.40
2022-10-17T03:59:54.293Z,1007.42
2022-10-17T04:00:54.338Z,1007.47
2022-10-17T04:01:54.081Z,1007.48
2022-10-17T04:02:54.259Z,1007.47
2022-10-17T04:03:54.032Z,1007.47
2022-10-17T04:05:09.703Z,1007.49
2022-10-17T04:05:55.267Z,1007.45
2022-10-17T04:06:55.243Z,1007.51
2022-10-17T04:07:54.243Z,1007.53
2022-10-17T04:08:53.956Z,1007.56
2022-10-17T04:09:54.187Z,1007.62
2022-10-17T04:10:54.181Z,1007.62
2022-10-17T04:12:09.536Z,1007.65
2022-10-17T04:12:54.185Z,1007.66
2022-10-17T04:13:54.125Z,1007.63
2022-10-17T04:14:53.899Z,1007.66
2022-10-17T04:15:54.139Z,1007.69
2022-10-17T04:16:53.937Z,1007.68
2022-10-17T04:17:56.983Z,1007.69
2022-10-17T04:18:53.869Z,1007.67
2022-10-17T04:19:53.897Z,1007.76
2022-10-17T04:20:53.848Z,1007.76
2022-10-17T04:21:54.068Z,1007.77
2022-10-17T04:22:54.062Z,1007.76
2022-10-17T04:23:54.837Z,1007.77
2022-10-17T04:24:56.819Z,1007.82
2022-10-17T04:25:54.031Z,1007.86
2022-10-17T04:26:54.008Z,1007.91
2022-10-17T04:27:53.999Z,1007.90
2022-10-17T04:28:54.776Z,1007.87
2022-10-17T04:29:53.779Z,1007.89
2022-10-17T04:30:54.173Z,1007.85
2022-10-17T04:31:54.745Z,1007.86
2022-10-17T04:32:54.734Z,1007.88
2022-10-17T04:33:53.970Z,1007.86
2022-10-17T04:34:54.731Z,1007.85
2022-10-17T04:35:53.911Z,1007.84
2022-10-17T04:36:53.700Z,1007.82
2022-10-17T04:37:56.949Z,1007.85
2022-10-17T04:38:53.915Z,1007.84
2022-10-17T04:39:53.647Z,1007.83
2022-10-17T04:40:53.658Z,1007.86
2022-10-17T04:41:56.879Z,1007.83
2022-10-17T04:42:53.623Z,1007.84
2022-10-17T04:43:56.649Z,1007.78
2022-10-17T04:44:53.627Z,1007.83
2022-10-17T04:45:53.829Z,1007.83
2022-10-17T04:46:56.873Z,1007.86
2022-10-17T04:47:53.567Z,1007.91
2022-10-17T04:48:53.803Z,1007.92
2022-10-17T04:49:53.779Z,1007.92
2022-10-17T04:50:53.780Z,1007.88
2022-10-17T04:51:53.791Z,1007.88
2022-10-17T04:53:14.774Z,1007.84
2022-10-17T04:53:53.492Z,1007.89
2022-10-17T04:54:53.501Z,1007.85
2022-10-17T04:55:53.690Z,1007.87
2022-10-17T04:56:53.485Z,1007.82
2022-10-17T04:57:53.722Z,1007.80
2022-10-17T04:58:56.456Z,1007.83
2022-10-17T04:59:53.478Z,1007.86
2022-10-17T05:00:53.473Z,1007.89
2022-10-17T05:01:53.705Z,1007.86
2022-10-17T05:02:53.662Z,1007.87
2022-10-17T05:03:54.652Z,1007.82
2022-10-17T05:04:54.422Z,1007.79
2022-10-17T05:05:53.650Z,1007.79
2022-10-17T05:06:54.613Z,1007.77
2022-10-17T05:07:54.373Z,1007.78
2022-10-17T05:08:53.586Z,1007.79
2022-10-17T05:10:00.411Z,1007.80
2022-10-17T05:10:53.389Z,1007.83
2022-10-17T05:11:53.339Z,1007.78
2022-10-17T05:12:53.291Z,1007.78
2022-10-17T05:13:53.286Z,1007.82
2022-10-17T05:14:53.512Z,1007.86
2022-10-17T05:15:53.303Z,1007.89
2022-10-17T05:16:53.496Z,1007.87
2022-10-17T05:17:54.287Z,1007.87
2022-10-17T05:18:54.522Z,1007.85
2022-10-17T05:19:53.456Z,1007.91
2022-10-17T05:20:53.473Z,1007.93
2022-10-17T05:21:54.247Z,1007.88
2022-10-17T05:22:56.258Z,1007.92
2022-10-17T05:23:56.217Z,1007.86
2022-10-17T05:24:53.450Z,1007.86
2022-10-17T05:25:53.396Z,1007.87
2022-10-17T05:26:53.410Z,1007.91
2022-10-17T05:27:56.198Z,1007.92
2022-10-17T05:28:54.457Z,1008.03
2022-10-17T05:29:53.370Z,1007.98
2022-10-17T05:30:53.107Z,1007.96
2022-10-17T05:31:53.134Z,1007.97
2022-10-17T05:32:56.143Z,1007.97
2022-10-17T05:33:56.333Z,1007.97
2022-10-17T05:34:53.321Z,1008.01
2022-10-17T05:35:53.295Z,1007.98
2022-10-17T05:36:53.077Z,1008.00
2022-10-17T05:38:00.291Z,1008.00
2022-10-17T05:38:53.277Z,1007.99
2022-10-17T05:40:08.295Z,1008.02
2022-10-17T05:40:54.029Z,1008.01
2022-10-17T05:41:53.062Z,1007.99
2022-10-17T05:42:53.017Z,1008.02
2022-10-17T05:43:54.049Z,1007.99
2022-10-17T05:44:52.971Z,1007.95
2022-10-17T05:45:56.028Z,1007.99
2022-10-17T05:46:53.197Z,1007.98
2022-10-17T05:47:53.208Z,1007.94
2022-10-17T05:48:52.941Z,1008.00
2022-10-17T05:49:52.946Z,1008.00
2022-10-17T05:50:55.943Z,1008.04
2022-10-17T05:51:54.166Z,1007.98
2022-10-17T05:52:52.895Z,1007.99
2022-10-17T05:53:52.889Z,1008.02
2022-10-17T05:54:52.884Z,1008.00
2022-10-17T05:55:52.864Z,1008.00
2022-10-17T05:56:54.124Z,1008.04
2022-10-17T05:57:52.897Z,1008.02
2022-10-17T05:58:57.375Z,1007.98
2022-10-17T05:59:53.820Z,1008.00
2022-10-17T06:01:00.154Z,1008.04
2022-10-17T06:01:54.127Z,1007.99
2022-10-17T06:02:53.038Z,1008.01
2022-10-17T06:03:53.015Z,1008.01
2022-10-17T06:04:52.812Z,1008.02
2022-10-17T06:05:53.025Z,1008.01
2022-10-17T06:06:52.744Z,1008.05
2022-10-17T06:07:52.764Z,1008.05
2022-10-17T06:08:53.785Z,1008.06
2022-10-17T06:09:52.942Z,1008.04
2022-10-17T06:10:52.703Z,1008.08
2022-10-17T06:11:53.701Z,1008.08
2022-10-17T06:12:59.982Z,1008.07
2022-10-17T06:13:52.936Z,1008.10
2022-10-17T06:14:52.672Z,1008.17
2022-10-17T06:15:52.884Z,1008.18
2022-10-17T06:16:52.643Z,1008.15
2022-10-17T06:17:53.900Z,1008.23
2022-10-17T06:18:52.900Z,1008.24
2022-10-17T06:19:53.873Z,1008.21
2022-10-17T06:20:52.830Z,1008.24
2022-10-17T06:21:52.612Z,1008.26
2022-10-17T06:22:52.607Z,1008.32
2022-10-17T06:23:52.612Z,1008.26
2022-10-17T06:24:52.578Z,1008.26
2022-10-17T06:25:53.225Z,1008.31
2022-10-17T06:26:52.797Z,1008.32
2022-10-17T06:28:52.871Z,1008.26
2022-10-17T06:29:52.559Z,1008.25
2022-10-17T06:30:52.771Z,1008.26
2022-10-17T06:31:52.506Z,1008.26
2022-10-17T06:32:53.731Z,1008.30
2022-10-17T06:33:52.487Z,1008.33
2022-10-17T06:34:52.506Z,1008.34
2022-10-17T06:35:53.510Z,1008.38
2022-10-17T06:36:52.466Z,1008.42
2022-10-17T06:37:53.483Z,1008.44
2022-10-17T06:38:52.427Z,1008.44
2022-10-17T06:39:52.481Z,1008.51
2022-10-17T06:40:52.413Z,1008.51
2022-10-17T06:41:52.395Z,1008.56
2022-10-17T06:42:55.409Z,1008.55
2022-10-17T06:43:55.410Z,1008.57
2022-10-17T06:44:52.615Z,1008.54
2022-10-17T06:45:52.399Z,1008.54
2022-10-17T06:46:52.351Z,1008.54
2022-10-17T06:47:52.357Z,1008.53
2022-10-17T06:48:52.321Z,1008.54
2022-10-17T06:49:52.330Z,1008.54
2022-10-17T06:50:52.344Z,1008.53
2022-10-17T06:51:52.313Z,1008.50
2022-10-17T06:52:53.364Z,1008.46
2022-10-17T06:53:52.282Z,1008.55
2022-10-17T06:54:52.301Z,1008.55
2022-10-17T06:55:52.312Z,1008.52
2022-10-17T06:56:52.254Z,1008.45
2022-10-17T06:57:52.252Z,1008.49
2022-10-17T06:58:52.215Z,1008.49
2022-10-17T06:59:52.245Z,1008.56
2022-10-17T07:00:52.328Z,1008.58
2022-10-17T07:01:52.192Z,1008.52
2022-10-17T07:02:52.190Z,1008.47
2022-10-17T07:03:52.182Z,1008.49
2022-10-17T07:04:52.167Z,1008.49
2022-10-17T07:05:52.159Z,1008.51
2022-10-17T07:06:52.160Z,1008.52
2022-10-17T07:07:53.410Z,1008.54
2022-10-17T07:08:53.177Z,1008.55
2022-10-17T07:09:52.134Z,1008.58
2022-10-17T07:10:52.159Z,1008.61
2022-10-17T07:11:53.362Z,1008.67
2022-10-17T07:12:52.079Z,1008.68
2022-10-17T07:13:55.105Z,1008.67
2022-10-17T07:14:52.053Z,1008.66
2022-10-17T07:15:52.121Z,1008.63
2022-10-17T07:16:52.322Z,1008.62
2022-10-17T07:17:53.104Z,1008.66
2022-10-17T07:18:59.537Z,1008.74
2022-10-17T07:19:53.038Z,1008.75
2022-10-17T07:20:51.991Z,1008.66
2022-10-17T07:21:52.025Z,1008.56
2022-10-17T07:22:52.223Z,1008.69
2022-10-17T07:24:13.990Z,1008.77
2022-10-17T07:24:52.026Z,1008.85
2022-10-17T07:25:52.194Z,1008.79
2022-10-17T07:26:51.980Z,1008.76
2022-10-17T07:27:52.201Z,1008.77
2022-10-17T07:28:51.987Z,1008.79
2022-10-17T07:29:51.905Z,1008.80
2022-10-17T07:30:54.923Z,1008.85
2022-10-17T07:31:52.164Z,1008.86
2022-10-17T07:32:52.108Z,1008.90
2022-10-17T07:33:52.926Z,1008.89
2022-10-17T07:34:51.887Z,1008.90
2022-10-17T07:35:52.095Z,1008.85
2022-10-17T07:36:51.845Z,1008.83
2022-10-17T07:37:51.852Z,1008.75
2022-10-17T07:38:51.839Z,1008.76
2022-10-17T07:39:51.806Z,1008.72
2022-10-17T07:40:51.801Z,1008.71
2022-10-17T07:42:12.811Z,1008.74
2022-10-17T07:42:51.997Z,1008.72
2022-10-17T07:43:58.957Z,1008.72
2022-10-17T07:44:52.050Z,1008.69
2022-10-17T07:45:53.020Z,1008.64
2022-10-17T07:46:54.802Z,1008.64
2022-10-17T07:47:51.736Z,1008.67
2022-10-17T07:48:51.721Z,1008.70
2022-10-17T07:49:51.740Z,1008.72
2022-10-17T07:50:51.728Z,1008.75
2022-10-17T07:51:51.712Z,1008.76
2022-10-17T07:52:51.925Z,1008.70
2022-10-17T07:53:54.703Z,1008.71
2022-10-17T07:54:51.649Z,1008.68
2022-10-17T07:55:54.902Z,1008.69
2022-10-17T07:56:51.859Z,1008.73
2022-10-17T07:57:51.647Z,1008.74
2022-10-17T07:58:51.677Z,1008.76
2022-10-17T07:59:51.613Z,1008.74
2022-10-17T08:00:51.883Z,1008.70
2022-10-17T08:01:51.846Z,1008.70
2022-10-17T08:02:51.566Z,1008.72
2022-10-17T08:03:51.842Z,1008.72
2022-10-17T08:04:51.779Z,1008.75
2022-10-17T08:05:52.559Z,1008.71
2022-10-17T08:07:05.420Z,1008.76
2022-10-17T08:07:55.568Z,1008.76
2022-10-17T08:08:52.006Z,1008.81
2022-10-17T08:09:51.539Z,1008.79
2022-10-17T08:10:52.522Z,1008.80
2022-10-17T08:11:51.732Z,1008.80
2022-10-17T08:12:54.786Z,1008.82
2022-10-17T08:13:51.469Z,1008.83
2022-10-17T08:14:51.508Z,1008.79
2022-10-17T08:15:52.474Z,1008.72
2022-10-17T08:16:58.612Z,1008.74
2022-10-17T08:17:51.430Z,1008.80
2022-10-17T08:18:51.409Z,1008.80
2022-10-17T08:19:51.421Z,1008.78
2022-10-17T08:20:55.603Z,1008.80
2022-10-17T08:21:52.610Z,1008.89
2022-10-17T08:22:54.673Z,1008.87
2022-10-17T08:23:51.362Z,1008.89
2022-10-17T08:24:51.385Z,1008.90
2022-10-17T08:25:51.364Z,1008.90
2022-10-17T08:26:52.625Z,1008.87
2022-10-17T08:27:52.328Z,1008.90
2022-10-17T08:28:51.609Z,1008.90
2022-10-17T08:29:52.300Z,1008.89
2022-10-17T08:30:51.315Z,1008.86
2022-10-17T08:31:58.613Z,1008.91
2022-10-17T08:32:52.513Z,1008.90
2022-10-17T08:33:58.735Z,1008.87
2022-10-17T08:34:58.435Z,1008.94
2022-10-17T08:35:51.263Z,1008.92
2022-10-17T08:36:58.511Z,1008.89
2022-10-17T08:37:51.232Z,1008.92
2022-10-17T08:38:53.027Z,1008.89
2022-10-17T08:39:51.185Z,1008.90
2022-10-17T08:40:51.447Z,1008.86
2022-10-17T08:42:06.434Z,1008.88
2022-10-17T08:42:51.425Z,1008.83
2022-10-17T08:43:52.412Z,1008.77
2022-10-17T08:44:51.388Z,1008.79
2022-10-17T08:45:51.122Z,1008.74
2022-10-17T08:46:51.428Z,1008.77
2022-10-17T08:47:51.114Z,1008.73
2022-10-17T08:48:51.099Z,1008.75
2022-10-17T08:49:54.356Z,1008.71
2022-10-17T08:50:51.081Z,1008.71
2022-10-17T08:51:51.357Z,1008.70
2022-10-17T08:52:51.066Z,1008.72
2022-10-17T08:53:51.043Z,1008.69
2022-10-17T08:54:51.055Z,1008.70
2022-10-17T08:55:51.389Z,1008.71
2022-10-17T08:56:51.035Z,1008.71
2022-10-17T08:57:51.238Z,1008.69
2022-10-17T08:58:51.016Z,1008.69
2022-10-17T08:59:51.266Z,1008.74
2022-10-17T09:00:52.245Z,1008.71
2022-10-17T09:01:50.978Z,1008.72
2022-10-17T09:02:51.265Z,1008.72
2022-10-17T09:03:50.989Z,1008.75
2022-10-17T09:04:50.930Z,1008.75
2022-10-17T09:05:57.991Z,1008.71
2022-10-17T09:06:51.163Z,1008.72
2022-10-17T09:07:52.187Z,1008.70
2022-10-17T09:08:51.145Z,1008.70
2022-10-17T09:09:50.874Z,1008.72
2022-10-17T09:10:51.094Z,1008.66
2022-10-17T09:11:50.914Z,1008.69
2022-10-17T09:12:50.848Z,1008.64
2022-10-17T09:13:50.849Z,1008.61
2022-10-17T09:14:51.854Z,1008.60
2022-10-17T09:15:51.089Z,1008.59
2022-10-17T09:16:50.838Z,1008.55
2022-10-17T09:17:51.820Z,1008.57
2022-10-17T09:18:53.819Z,1008.55
2022-10-17T09:19:50.800Z,1008.52
2022-10-17T09:20:51.003Z,1008.56
2022-10-17T09:21:50.778Z,1008.58
2022-10-17T09:22:52.043Z,1008.57
2022-10-17T09:24:08.961Z,1008.51
2022-10-17T09:24:51.741Z,1008.53
2022-10-17T09:25:50.958Z,1008.54
2022-10-17T09:26:50.742Z,1008.60
2022-10-17T09:27:51.707Z,1008.60
2022-10-17T09:28:50.738Z,1008.63
2022-10-17T09:29:53.731Z,1008.61
2022-10-17T09:30:50.685Z,1008.62
2022-10-17T09:31:50.990Z,1008.67
2022-10-17T09:32:51.925Z,1008.68
2022-10-17T09:33:54.832Z,1008.64
2022-10-17T09:34:58.003Z,1008.62
2022-10-17T09:35:57.659Z,1008.70
2022-10-17T09:36:50.840Z,1008.65
2022-10-17T09:37:53.629Z,1008.65
2022-10-17T09:38:51.628Z,1008.63
2022-10-17T09:39:50.585Z,1008.66
2022-10-17T09:40:56.195Z,1008.64
2022-10-17T09:41:51.797Z,1008.65
2022-10-17T09:42:50.574Z,1008.68
2022-10-17T09:43:50.523Z,1008.71
2022-10-17T09:44:50.529Z,1008.66
2022-10-17T09:45:51.522Z,1008.69
2022-10-17T09:46:53.801Z,1008.73
2022-10-17T09:48:53.772Z,1008.77
2022-10-17T09:49:50.508Z,1008.71
2022-10-17T09:51:14.688Z,1008.76
2022-10-17T09:51:54.468Z,1008.80
2022-10-17T09:52:50.702Z,1008.79
2022-10-17T09:53:50.432Z,1008.84
2022-10-17T09:54:50.448Z,1008.83
2022-10-17T09:55:57.535Z,1008.83
2022-10-17T09:56:50.431Z,1008.79
2022-10-17T09:57:50.369Z,1008.80
2022-10-17T09:58:53.415Z,1008.79
2022-10-17T09:59:50.379Z,1008.81
2022-10-17T10:00:51.690Z,1008.77
2022-10-17T10:01:50.592Z,1008.77
2022-10-17T10:02:53.614Z,1008.83
2022-10-17T10:03:50.577Z,1008.81
2022-10-17T10:05:03.741Z,1008.85
2022-10-17T10:05:51.540Z,1008.82
2022-10-17T10:06:53.316Z,1008.83
2022-10-17T10:07:50.273Z,1008.84
2022-10-17T10:08:50.513Z,1008.79
2022-10-17T10:09:50.256Z,1008.77
2022-10-17T10:10:51.529Z,1008.78
2022-10-17T10:11:53.305Z,1008.75
2022-10-17T10:12:50.241Z,1008.77
2022-10-17T10:13:50.542Z,1008.75
2022-10-17T10:14:54.707Z,1008.77
2022-10-17T10:15:50.216Z,1008.77
2022-10-17T10:16:53.235Z,1008.78
2022-10-17T10:17:50.164Z,1008.81
2022-10-17T10:18:51.219Z,1008.80
2022-10-17T10:19:50.404Z,1008.79
2022-10-17T10:20:51.209Z,1008.81
2022-10-17T10:21:57.352Z,1008.83
2022-10-17T10:22:51.165Z,1008.80
2022-10-17T10:23:50.357Z,1008.84
2022-10-17T10:24:50.344Z,1008.84
2022-10-17T10:25:50.356Z,1008.92
2022-10-17T10:26:50.106Z,1008.94
2022-10-17T10:27:53.363Z,1008.94
2022-10-17T10:28:53.163Z,1008.97
2022-10-17T10:29:50.275Z,1008.97
2022-10-17T10:30:51.071Z,1008.97
2022-10-17T10:31:53.087Z,1009.02
2022-10-17T10:32:50.078Z,1008.98
2022-10-17T10:33:54.569Z,1009.01
2022-10-17T10:34:54.259Z,1009.01
2022-10-17T10:36:05.460Z,1009.02
2022-10-17T10:37:05.379Z,1009.00
2022-10-17T10:37:50.023Z,1009.01
2022-10-17T10:38:49.981Z,1008.98
2022-10-17T10:39:49.984Z,1008.98
2022-10-17T10:40:49.960Z,1008.96
2022-10-17T10:41:49.969Z,1008.97
2022-10-17T10:42:49.919Z,1008.97
2022-10-17T10:43:50.185Z,1008.98
2022-10-17T10:44:50.198Z,1008.95
2022-10-17T10:45:51.134Z,1008.99
2022-10-17T10:46:50.890Z,1009.01
2022-10-17T10:47:53.150Z,1009.06
2022-10-17T10:48:50.111Z,1009.06
2022-10-17T10:49:49.877Z,1009.07
2022-10-17T10:50:51.075Z,1009.05
2022-10-17T10:51:51.106Z,1009.05
2022-10-17T10:52:49.825Z,1009.07
2022-10-17T10:53:49.804Z,1008.97
2022-10-17T10:54:50.053Z,1008.99
2022-10-17T10:55:56.903Z,1009.02
2022-10-17T10:56:53.298Z,1008.95
2022-10-17T10:57:49.783Z,1008.98
2022-10-17T10:58:51.023Z,1008.94
2022-10-17T10:59:53.031Z,1008.98
2022-10-17T11:00:49.842Z,1008.94
2022-10-17T11:01:49.728Z,1008.94
2022-10-17T11:02:57.220Z,1008.95
2022-10-17T11:03:49.922Z,1008.93
2022-10-17T11:04:49.716Z,1008.92
2022-10-17T11:05:49.714Z,1008.92
2022-10-17T11:06:50.946Z,1008.94
2022-10-17T11:07:49.654Z,1008.92
2022-10-17T11:09:05.125Z,1008.86
2022-10-17T11:09:49.874Z,1008.85
2022-10-17T11:10:49.945Z,1008.88
2022-10-17T11:11:49.865Z,1008.88
2022-10-17T11:13:04.997Z,1008.87
2022-10-17T11:13:51.870Z,1008.89
2022-10-17T11:14:52.841Z,1008.90
2022-10-17T11:15:49.583Z,1008.87
2022-10-17T11:16:49.802Z,1008.91
2022-10-17T11:17:49.594Z,1008.91
2022-10-17T11:18:49.811Z,1008.88
2022-10-17T11:19:50.793Z,1008.88
2022-10-17T11:20:49.816Z,1008.87
2022-10-17T11:21:49.514Z,1008.89
2022-10-17T11:22:49.500Z,1008.93
2022-10-17T11:23:52.545Z,1008.90
2022-10-17T11:24:49.495Z,1008.96
2022-10-17T11:25:49.764Z,1008.92
2022-10-17T11:26:49.486Z,1008.95
2022-10-17T11:27:49.455Z,1009.00
2022-10-17T11:28:49.534Z,1008.97
2022-10-17T11:29:49.431Z,1008.99
2022-10-17T11:30:49.449Z,1009.04
2022-10-17T11:31:49.428Z,1009.00
2022-10-17T11:32:56.949Z,1009.00
2022-10-17T11:33:49.627Z,1008.97
2022-10-17T11:34:49.397Z,1008.96
2022-10-17T11:35:49.595Z,1008.98
2022-10-17T11:36:49.666Z,1008.96
2022-10-17T11:37:49.347Z,1009.00
2022-10-17T11:38:49.339Z,1009.00
2022-10-17T11:39:50.379Z,1009.04
2022-10-17T11:40:50.566Z,1009.05
2022-10-17T11:41:49.558Z,1009.03
2022-10-17T11:43:11.596Z,1009.01
2022-10-17T11:43:49.301Z,1009.00
2022-10-17T11:44:50.297Z,1009.03
2022-10-17T11:45:49.514Z,1009.02
2022-10-17T11:46:49.291Z,1009.03
2022-10-17T11:47:49.516Z,1009.01
2022-10-17T11:48:49.268Z,1009.02
2022-10-17T11:49:51.154Z,1009.01
2022-10-17T11:52:05.681Z,1009.02
2022-10-17T11:52:57.421Z,1009.04
2022-10-17T11:53:51.202Z,1009.04
2022-10-17T11:54:49.200Z,1009.01
2022-10-17T11:55:49.188Z,1009.00
2022-10-17T11:56:49.180Z,1009.07
2022-10-17T11:57:49.170Z,1009.05
2022-10-17T11:58:49.375Z,1009.04
2022-10-17T12:00:10.351Z,1009.08
2022-10-17T12:00:49.805Z,1009.12
2022-10-17T12:01:49.343Z,1009.14
2022-10-17T12:02:49.355Z,1009.18
2022-10-17T12:03:50.349Z,1009.19
2022-10-17T12:04:49.753Z,1009.17
2022-10-17T12:05:49.067Z,1009.16
2022-10-17T12:06:49.109Z,1009.18
2022-10-17T12:07:49.115Z,1009.17
2022-10-17T12:08:49.038Z,1009.16
2022-10-17T12:09:49.043Z,1009.14
2022-10-17T12:10:49.021Z,1009.16